sensor_id;sensor_type;location;lat;lon;timestamp;P1;durP1;ratioP1;P2;durP2;ratioP2
1206;SDS011;593;53.184;8.216;2022-12-29T00:01:45;3.80;;;3.50;;
1206;SDS011;593;53.184;8.216;2022-12-29T00:04:11;4.00;;;3.60;;
1206;SDS011;593;53.184;8.216;2022-12-29T00:06:38;4.20;;;3.90;;
1206;SDS011;593;53.184;8.216;2022-12-29T00:09:03;4.37;;;4.07;;
1206;SDS011;593;53.184;8.216;2022-12-29T00:11:29;4.07;;;3.77;;
1206;SDS011;593;53.184;8.216;2022-12-29T00:13:55;4.23;;;3.90;;
1206;SDS011;593;53.184;8.216;2022-12-29T00:16:42;3.50;;;3.30;;
1206;SDS011;593;53.184;8.216;2022-12-29T00:19:09;4.03;;;3.72;;
1206;SDS011;593;53.184;8.216;2022-12-29T00:21:55;3.10;;;2.90;;
1206;SDS011;593;53.184;8.216;2022-12-29T00:24:39;3.25;;;2.95;;
1206;SDS011;593;53.184;8.216;2022-12-29T00:27:20;4.30;;;4.00;;
1206;SDS011;593;53.184;8.216;2022-12-29T00:30:08;4.03;;;3.72;;
1206;SDS011;593;53.184;8.216;2022-12-29T00:32:53;3.65;;;2.50;;
1206;SDS011;593;53.184;8.216;2022-12-29T00:35:38;4.18;;;3.70;;
1206;SDS011;593;53.184;8.216;2022-12-29T00:38:08;3.10;;;2.90;;
1206;SDS011;593;53.184;8.216;2022-12-29T00:40:54;4.78;;;3.88;;
1206;SDS011;593;53.184;8.216;2022-12-29T00:43:38;4.35;;;4.00;;
1206;SDS011;593;53.184;8.216;2022-12-29T00:46:22;4.68;;;4.38;;
1206;SDS011;593;53.184;8.216;2022-12-29T00:48:47;4.50;;;4.30;;
1206;SDS011;593;53.184;8.216;2022-12-29T00:51:31;3.95;;;3.65;;
1206;SDS011;593;53.184;8.216;2022-12-29T00:53:56;5.50;;;5.00;;
1206;SDS011;593;53.184;8.216;2022-12-29T00:56:22;5.20;;;4.70;;
1206;SDS011;593;53.184;8.216;2022-12-29T00:58:47;5.43;;;5.03;;
1206;SDS011;593;53.184;8.216;2022-12-29T01:01:12;5.53;;;5.13;;
1206;SDS011;593;53.184;8.216;2022-12-29T01:03:38;5.47;;;5.10;;
1206;SDS011;593;53.184;8.216;2022-12-29T01:06:05;6.33;;;5.37;;
1206;SDS011;593;53.184;8.216;2022-12-29T01:08:32;5.65;;;5.18;;
1206;SDS011;593;53.184;8.216;2022-12-29T01:11:02;6.30;;;5.60;;
1206;SDS011;593;53.184;8.216;2022-12-29T01:13:30;5.63;;;5.18;;
1206;SDS011;593;53.184;8.216;2022-12-29T01:15:55;5.70;;;5.10;;
1206;SDS011;593;53.184;8.216;2022-12-29T01:18:21;5.90;;;5.40;;
1206;SDS011;593;53.184;8.216;2022-12-29T01:20:47;5.55;;;5.15;;
1206;SDS011;593;53.184;8.216;2022-12-29T01:23:13;6.77;;;5.50;;
1206;SDS011;593;53.184;8.216;2022-12-29T01:25:39;5.03;;;4.63;;
1206;SDS011;593;53.184;8.216;2022-12-29T01:28:07;5.70;;;5.20;;
1206;SDS011;593;53.184;8.216;2022-12-29T01:30:33;5.15;;;4.75;;
1206;SDS011;593;53.184;8.216;2022-12-29T01:32:59;4.75;;;4.45;;
1206;SDS011;593;53.184;8.216;2022-12-29T01:35:25;5.17;;;4.77;;
1206;SDS011;593;53.184;8.216;2022-12-29T01:37:50;5.30;;;4.80;;
1206;SDS011;593;53.184;8.216;2022-12-29T01:40:17;5.13;;;4.83;;
1206;SDS011;593;53.184;8.216;2022-12-29T01:42:43;4.47;;;4.17;;
1206;SDS011;593;53.184;8.216;2022-12-29T01:45:10;4.47;;;4.10;;
1206;SDS011;593;53.184;8.216;2022-12-29T01:50:11;4.30;;;3.90;;
1206;SDS011;593;53.184;8.216;2022-12-29T01:52:42;4.00;;;3.65;;
1206;SDS011;593;53.184;8.216;2022-12-29T01:55:14;3.80;;;3.50;;
1206;SDS011;593;53.184;8.216;2022-12-29T01:57:40;3.50;;;3.30;;
1206;SDS011;593;53.184;8.216;2022-12-29T02:00:14;3.85;;;3.65;;
1206;SDS011;593;53.184;8.216;2022-12-29T02:02:44;4.22;;;3.80;;
1206;SDS011;593;53.184;8.216;2022-12-29T02:05:19;4.05;;;3.72;;
1206;SDS011;593;53.184;8.216;2022-12-29T02:07:53;3.15;;;2.95;;
1206;SDS011;593;53.184;8.216;2022-12-29T02:10:20;3.63;;;3.33;;
1206;SDS011;593;53.184;8.216;2022-12-29T02:12:47;3.20;;;3.00;;
1206;SDS011;593;53.184;8.216;2022-12-29T02:15:13;3.10;;;2.90;;
1206;SDS011;593;53.184;8.216;2022-12-29T02:17:53;4.05;;;3.75;;
1206;SDS011;593;53.184;8.216;2022-12-29T02:26:16;3.17;;;2.97;;
1206;SDS011;593;53.184;8.216;2022-12-29T02:35:01;3.00;;;2.80;;
1206;SDS011;593;53.184;8.216;2022-12-29T02:43:06;2.45;;;2.30;;
1206;SDS011;593;53.184;8.216;2022-12-29T02:45:52;2.05;;;1.95;;
1206;SDS011;593;53.184;8.216;2022-12-29T02:51:01;2.58;;;2.40;;
1206;SDS011;593;53.184;8.216;2022-12-29T02:53:28;4.03;;;2.70;;
1206;SDS011;593;53.184;8.216;2022-12-29T02:56:15;2.78;;;2.58;;
1206;SDS011;593;53.184;8.216;2022-12-29T02:58:40;2.60;;;2.40;;
1206;SDS011;593;53.184;8.216;2022-12-29T03:04:01;1.90;;;1.80;;
1206;SDS011;593;53.184;8.216;2022-12-29T03:06:56;2.40;;;2.25;;
1206;SDS011;593;53.184;8.216;2022-12-29T03:09:41;2.20;;;2.10;;
1206;SDS011;593;53.184;8.216;2022-12-29T03:14:50;2.40;;;2.20;;
1206;SDS011;593;53.184;8.216;2022-12-29T03:20:49;3.60;;;2.83;;
1206;SDS011;593;53.184;8.216;2022-12-29T03:23:19;2.50;;;2.38;;
1206;SDS011;593;53.184;8.216;2022-12-29T03:25:47;2.70;;;2.60;;
1206;SDS011;593;53.184;8.216;2022-12-29T03:28:18;2.42;;;2.33;;
1206;SDS011;593;53.184;8.216;2022-12-29T03:30:57;2.03;;;1.93;;
1206;SDS011;593;53.184;8.216;2022-12-29T03:33:25;2.85;;;2.65;;
1206;SDS011;593;53.184;8.216;2022-12-29T03:35:54;3.65;;;2.28;;
1206;SDS011;593;53.184;8.216;2022-12-29T03:41:03;2.90;;;2.70;;
1206;SDS011;593;53.184;8.216;2022-12-29T03:43:33;2.92;;;2.72;;
1206;SDS011;593;53.184;8.216;2022-12-29T03:45:59;2.40;;;2.30;;
1206;SDS011;593;53.184;8.216;2022-12-29T03:48:24;3.17;;;2.30;;
1206;SDS011;593;53.184;8.216;2022-12-29T03:50:50;2.27;;;2.13;;
1206;SDS011;593;53.184;8.216;2022-12-29T03:53:15;2.43;;;2.27;;
1206;SDS011;593;53.184;8.216;2022-12-29T03:55:41;2.73;;;2.00;;
1206;SDS011;593;53.184;8.216;2022-12-29T03:58:06;2.33;;;2.23;;
1206;SDS011;593;53.184;8.216;2022-12-29T04:00:32;1.70;;;1.60;;
1206;SDS011;593;53.184;8.216;2022-12-29T04:02:57;1.63;;;1.53;;
1206;SDS011;593;53.184;8.216;2022-12-29T04:05:22;2.10;;;1.83;;
1206;SDS011;593;53.184;8.216;2022-12-29T04:07:48;1.27;;;1.23;;
1206;SDS011;593;53.184;8.216;2022-12-29T04:10:16;2.00;;;1.70;;
1206;SDS011;593;53.184;8.216;2022-12-29T04:12:41;1.52;;;1.42;;
1206;SDS011;593;53.184;8.216;2022-12-29T04:15:07;1.90;;;1.80;;
1206;SDS011;593;53.184;8.216;2022-12-29T04:17:33;1.42;;;1.33;;
1206;SDS011;593;53.184;8.216;2022-12-29T04:19:59;1.37;;;1.27;;
1206;SDS011;593;53.184;8.216;2022-12-29T04:22:42;2.13;;;1.40;;
1206;SDS011;593;53.184;8.216;2022-12-29T04:25:08;1.37;;;1.27;;
1206;SDS011;593;53.184;8.216;2022-12-29T04:27:33;1.53;;;1.10;;
1206;SDS011;593;53.184;8.216;2022-12-29T04:29:58;1.20;;;1.10;;
1206;SDS011;593;53.184;8.216;2022-12-29T04:32:24;1.10;;;1.10;;
1206;SDS011;593;53.184;8.216;2022-12-29T04:34:49;1.00;;;1.00;;
1206;SDS011;593;53.184;8.216;2022-12-29T04:37:14;1.53;;;1.27;;
1206;SDS011;593;53.184;8.216;2022-12-29T04:39:40;1.70;;;1.60;;
1206;SDS011;593;53.184;8.216;2022-12-29T04:42:05;1.50;;;0.90;;
1206;SDS011;593;53.184;8.216;2022-12-29T04:44:30;1.00;;;1.00;;
1206;SDS011;593;53.184;8.216;2022-12-29T04:46:56;1.03;;;1.03;;
1206;SDS011;593;53.184;8.216;2022-12-29T04:49:21;0.90;;;0.90;;
1206;SDS011;593;53.184;8.216;2022-12-29T04:51:47;1.40;;;1.30;;
1206;SDS011;593;53.184;8.216;2022-12-29T04:54:12;0.80;;;0.80;;
1206;SDS011;593;53.184;8.216;2022-12-29T04:56:37;1.23;;;1.10;;
1206;SDS011;593;53.184;8.216;2022-12-29T04:59:03;0.90;;;0.90;;
1206;SDS011;593;53.184;8.216;2022-12-29T05:01:28;1.40;;;1.20;;
1206;SDS011;593;53.184;8.216;2022-12-29T05:03:54;1.60;;;1.20;;
1206;SDS011;593;53.184;8.216;2022-12-29T05:06:19;0.80;;;0.80;;
1206;SDS011;593;53.184;8.216;2022-12-29T05:08:44;4.43;;;1.87;;
1206;SDS011;593;53.184;8.216;2022-12-29T05:11:10;1.00;;;0.90;;
1206;SDS011;593;53.184;8.216;2022-12-29T05:13:35;0.80;;;0.80;;
1206;SDS011;593;53.184;8.216;2022-12-29T05:16:00;0.80;;;0.80;;
1206;SDS011;593;53.184;8.216;2022-12-29T05:18:26;1.10;;;0.90;;
1206;SDS011;593;53.184;8.216;2022-12-29T05:20:51;0.70;;;0.70;;
1206;SDS011;593;53.184;8.216;2022-12-29T05:23:16;1.40;;;0.80;;
1206;SDS011;593;53.184;8.216;2022-12-29T05:25:42;1.10;;;0.70;;
1206;SDS011;593;53.184;8.216;2022-12-29T05:28:10;1.37;;;0.90;;
1206;SDS011;593;53.184;8.216;2022-12-29T05:30:35;0.60;;;0.60;;
1206;SDS011;593;53.184;8.216;2022-12-29T05:33:00;1.60;;;0.60;;
1206;SDS011;593;53.184;8.216;2022-12-29T05:35:26;0.63;;;0.60;;
1206;SDS011;593;53.184;8.216;2022-12-29T05:37:51;1.13;;;0.70;;
1206;SDS011;593;53.184;8.216;2022-12-29T05:40:16;1.30;;;0.70;;
1206;SDS011;593;53.184;8.216;2022-12-29T05:42:42;0.60;;;0.60;;
1206;SDS011;593;53.184;8.216;2022-12-29T05:45:08;0.95;;;0.90;;
1206;SDS011;593;53.184;8.216;2022-12-29T05:47:34;0.60;;;0.60;;
1206;SDS011;593;53.184;8.216;2022-12-29T05:49:59;0.60;;;0.60;;
1206;SDS011;593;53.184;8.216;2022-12-29T05:52:25;1.63;;;0.50;;
1206;SDS011;593;53.184;8.216;2022-12-29T05:54:50;0.70;;;0.60;;
1206;SDS011;593;53.184;8.216;2022-12-29T05:57:16;3.33;;;0.90;;
1206;SDS011;593;53.184;8.216;2022-12-29T05:59:41;0.90;;;0.50;;
1206;SDS011;593;53.184;8.216;2022-12-29T06:02:06;0.50;;;0.40;;
1206;SDS011;593;53.184;8.216;2022-12-29T06:04:32;0.80;;;0.60;;
1206;SDS011;593;53.184;8.216;2022-12-29T06:06:57;0.60;;;0.50;;
1206;SDS011;593;53.184;8.216;2022-12-29T06:09:22;0.90;;;0.57;;
1206;SDS011;593;53.184;8.216;2022-12-29T06:11:48;0.50;;;0.50;;
1206;SDS011;593;53.184;8.216;2022-12-29T06:14:13;0.80;;;0.60;;
1206;SDS011;593;53.184;8.216;2022-12-29T06:16:38;0.60;;;0.60;;
1206;SDS011;593;53.184;8.216;2022-12-29T06:19:04;1.60;;;0.60;;
1206;SDS011;593;53.184;8.216;2022-12-29T06:21:29;0.73;;;0.73;;
1206;SDS011;593;53.184;8.216;2022-12-29T06:23:54;3.17;;;0.60;;
1206;SDS011;593;53.184;8.216;2022-12-29T06:26:20;0.50;;;0.50;;
1206;SDS011;593;53.184;8.216;2022-12-29T06:28:45;1.40;;;0.80;;
1206;SDS011;593;53.184;8.216;2022-12-29T06:31:11;0.73;;;0.53;;
1206;SDS011;593;53.184;8.216;2022-12-29T06:33:36;0.60;;;0.60;;
1206;SDS011;593;53.184;8.216;2022-12-29T06:36:02;0.50;;;0.50;;
1206;SDS011;593;53.184;8.216;2022-12-29T06:38:28;0.90;;;0.60;;
1206;SDS011;593;53.184;8.216;2022-12-29T06:40:54;1.13;;;0.50;;
1206;SDS011;593;53.184;8.216;2022-12-29T06:43:19;1.33;;;0.70;;
1206;SDS011;593;53.184;8.216;2022-12-29T06:45:44;0.90;;;0.50;;
1206;SDS011;593;53.184;8.216;2022-12-29T06:48:10;0.83;;;0.57;;
1206;SDS011;593;53.184;8.216;2022-12-29T06:50:35;1.93;;;0.60;;
1206;SDS011;593;53.184;8.216;2022-12-29T06:53:00;0.60;;;0.60;;
1206;SDS011;593;53.184;8.216;2022-12-29T06:55:26;0.90;;;0.60;;
1206;SDS011;593;53.184;8.216;2022-12-29T06:57:56;1.37;;;0.60;;
1206;SDS011;593;53.184;8.216;2022-12-29T07:00:23;0.70;;;0.60;;
1206;SDS011;593;53.184;8.216;2022-12-29T07:02:49;0.70;;;0.70;;
1206;SDS011;593;53.184;8.216;2022-12-29T07:05:15;1.03;;;0.97;;
1206;SDS011;593;53.184;8.216;2022-12-29T07:07:40;2.30;;;1.10;;
1206;SDS011;593;53.184;8.216;2022-12-29T07:10:05;1.50;;;1.00;;
1206;SDS011;593;53.184;8.216;2022-12-29T07:12:31;0.83;;;0.80;;
1206;SDS011;593;53.184;8.216;2022-12-29T07:14:56;1.40;;;1.30;;
1206;SDS011;593;53.184;8.216;2022-12-29T07:17:22;1.00;;;0.83;;
1206;SDS011;593;53.184;8.216;2022-12-29T07:19:47;1.80;;;0.90;;
1206;SDS011;593;53.184;8.216;2022-12-29T07:22:12;1.37;;;0.93;;
1206;SDS011;593;53.184;8.216;2022-12-29T07:24:38;2.10;;;1.00;;
1206;SDS011;593;53.184;8.216;2022-12-29T07:27:03;1.70;;;1.10;;
1206;SDS011;593;53.184;8.216;2022-12-29T07:29:29;3.10;;;1.10;;
1206;SDS011;593;53.184;8.216;2022-12-29T07:31:54;1.50;;;0.90;;
1206;SDS011;593;53.184;8.216;2022-12-29T07:34:20;2.40;;;1.10;;
1206;SDS011;593;53.184;8.216;2022-12-29T07:36:45;0.90;;;0.73;;
1206;SDS011;593;53.184;8.216;2022-12-29T07:39:10;2.83;;;0.60;;
1206;SDS011;593;53.184;8.216;2022-12-29T07:41:36;1.30;;;0.80;;
1206;SDS011;593;53.184;8.216;2022-12-29T07:44:02;0.93;;;0.60;;
1206;SDS011;593;53.184;8.216;2022-12-29T07:46:27;2.13;;;0.63;;
1206;SDS011;593;53.184;8.216;2022-12-29T07:48:52;0.90;;;0.60;;
1206;SDS011;593;53.184;8.216;2022-12-29T07:51:18;1.73;;;0.80;;
1206;SDS011;593;53.184;8.216;2022-12-29T07:53:43;1.00;;;0.70;;
1206;SDS011;593;53.184;8.216;2022-12-29T07:56:08;2.00;;;0.70;;
1206;SDS011;593;53.184;8.216;2022-12-29T07:58:34;0.70;;;0.70;;
1206;SDS011;593;53.184;8.216;2022-12-29T08:00:59;4.10;;;0.67;;
1206;SDS011;593;53.184;8.216;2022-12-29T08:03:24;1.10;;;0.60;;
1206;SDS011;593;53.184;8.216;2022-12-29T08:05:50;1.60;;;0.70;;
1206;SDS011;593;53.184;8.216;2022-12-29T08:08:16;1.30;;;0.80;;
1206;SDS011;593;53.184;8.216;2022-12-29T08:10:41;1.10;;;0.67;;
1206;SDS011;593;53.184;8.216;2022-12-29T08:13:07;1.80;;;0.60;;
1206;SDS011;593;53.184;8.216;2022-12-29T08:15:32;6.50;;;1.30;;
1206;SDS011;593;53.184;8.216;2022-12-29T08:17:57;1.20;;;0.67;;
1206;SDS011;593;53.184;8.216;2022-12-29T08:20:23;1.60;;;0.70;;
1206;SDS011;593;53.184;8.216;2022-12-29T08:22:48;4.27;;;0.70;;
1206;SDS011;593;53.184;8.216;2022-12-29T08:25:14;1.80;;;1.00;;
1206;SDS011;593;53.184;8.216;2022-12-29T08:27:39;1.73;;;0.70;;
1206;SDS011;593;53.184;8.216;2022-12-29T08:30:05;5.00;;;1.03;;
1206;SDS011;593;53.184;8.216;2022-12-29T08:32:31;5.57;;;0.90;;
1206;SDS011;593;53.184;8.216;2022-12-29T08:34:56;2.53;;;0.90;;
1206;SDS011;593;53.184;8.216;2022-12-29T08:37:22;0.70;;;0.70;;
1206;SDS011;593;53.184;8.216;2022-12-29T08:39:47;1.57;;;0.57;;
1206;SDS011;593;53.184;8.216;2022-12-29T08:42:13;3.60;;;0.60;;
1206;SDS011;593;53.184;8.216;2022-12-29T08:44:38;2.40;;;0.70;;
1206;SDS011;593;53.184;8.216;2022-12-29T08:47:04;2.70;;;0.67;;
1206;SDS011;593;53.184;8.216;2022-12-29T08:49:29;3.13;;;0.80;;
1206;SDS011;593;53.184;8.216;2022-12-29T08:51:55;1.27;;;1.17;;
1206;SDS011;593;53.184;8.216;2022-12-29T08:54:20;2.73;;;0.80;;
1206;SDS011;593;53.184;8.216;2022-12-29T08:56:46;0.57;;;0.50;;
1206;SDS011;593;53.184;8.216;2022-12-29T08:59:11;0.80;;;0.80;;
1206;SDS011;593;53.184;8.216;2022-12-29T09:01:36;1.63;;;0.80;;
1206;SDS011;593;53.184;8.216;2022-12-29T09:04:05;4.40;;;0.80;;
1206;SDS011;593;53.184;8.216;2022-12-29T09:06:31;2.87;;;0.93;;
1206;SDS011;593;53.184;8.216;2022-12-29T09:08:56;4.57;;;1.37;;
1206;SDS011;593;53.184;8.216;2022-12-29T09:11:22;3.87;;;1.00;;
1206;SDS011;593;53.184;8.216;2022-12-29T09:13:49;6.50;;;0.90;;
1206;SDS011;593;53.184;8.216;2022-12-29T09:16:15;4.00;;;1.07;;
1206;SDS011;593;53.184;8.216;2022-12-29T09:18:41;1.85;;;0.93;;
1206;SDS011;593;53.184;8.216;2022-12-29T09:21:07;1.20;;;0.80;;
1206;SDS011;593;53.184;8.216;2022-12-29T09:23:34;0.93;;;0.70;;
1206;SDS011;593;53.184;8.216;2022-12-29T09:26:00;4.23;;;1.03;;
1206;SDS011;593;53.184;8.216;2022-12-29T09:28:25;4.90;;;0.93;;
1206;SDS011;593;53.184;8.216;2022-12-29T09:30:51;1.37;;;0.70;;
1206;SDS011;593;53.184;8.216;2022-12-29T09:33:17;3.17;;;0.80;;
1206;SDS011;593;53.184;8.216;2022-12-29T09:35:43;3.72;;;1.20;;
1206;SDS011;593;53.184;8.216;2022-12-29T09:38:10;1.70;;;0.70;;
1206;SDS011;593;53.184;8.216;2022-12-29T09:40:36;1.00;;;0.70;;
1206;SDS011;593;53.184;8.216;2022-12-29T09:45:33;3.30;;;1.00;;
1206;SDS011;593;53.184;8.216;2022-12-29T09:48:06;3.92;;;0.70;;
1206;SDS011;593;53.184;8.216;2022-12-29T09:50:52;2.70;;;1.10;;
1206;SDS011;593;53.184;8.216;2022-12-29T09:55:58;0.70;;;0.70;;
1206;SDS011;593;53.184;8.216;2022-12-29T10:01:05;2.13;;;0.70;;
1206;SDS011;593;53.184;8.216;2022-12-29T10:03:47;3.38;;;0.57;;
1206;SDS011;593;53.184;8.216;2022-12-29T10:09:17;2.10;;;0.85;;
1206;SDS011;593;53.184;8.216;2022-12-29T10:20:12;1.05;;;0.60;;
1206;SDS011;593;53.184;8.216;2022-12-29T10:22:59;2.00;;;0.70;;
1206;SDS011;593;53.184;8.216;2022-12-29T10:25:28;3.60;;;0.63;;
1206;SDS011;593;53.184;8.216;2022-12-29T10:28:01;6.28;;;0.70;;
1206;SDS011;593;53.184;8.216;2022-12-29T10:30:34;1.67;;;0.90;;
1206;SDS011;593;53.184;8.216;2022-12-29T10:33:07;2.83;;;0.80;;
1206;SDS011;593;53.184;8.216;2022-12-29T10:35:40;1.67;;;0.60;;
1206;SDS011;593;53.184;8.216;2022-12-29T10:38:13;1.75;;;0.60;;
1206;SDS011;593;53.184;8.216;2022-12-29T10:41:23;1.88;;;0.60;;
1206;SDS011;593;53.184;8.216;2022-12-29T10:43:54;3.97;;;1.00;;
1206;SDS011;593;53.184;8.216;2022-12-29T10:46:27;2.30;;;0.60;;
1206;SDS011;593;53.184;8.216;2022-12-29T10:48:55;3.63;;;0.70;;
1206;SDS011;593;53.184;8.216;2022-12-29T10:53:56;2.80;;;0.68;;
1206;SDS011;593;53.184;8.216;2022-12-29T10:56:28;3.05;;;0.57;;
1206;SDS011;593;53.184;8.216;2022-12-29T11:07:20;3.10;;;0.75;;
1206;SDS011;593;53.184;8.216;2022-12-29T11:09:46;3.22;;;0.70;;
1206;SDS011;593;53.184;8.216;2022-12-29T11:12:25;8.60;;;1.42;;
1206;SDS011;593;53.184;8.216;2022-12-29T11:15:02;2.80;;;0.60;;
1206;SDS011;593;53.184;8.216;2022-12-29T11:17:28;2.20;;;0.70;;
1206;SDS011;593;53.184;8.216;2022-12-29T11:19:53;1.70;;;0.50;;
1206;SDS011;593;53.184;8.216;2022-12-29T11:22:26;1.43;;;0.60;;
1206;SDS011;593;53.184;8.216;2022-12-29T11:24:53;1.95;;;1.40;;
1206;SDS011;593;53.184;8.216;2022-12-29T11:27:29;1.73;;;0.98;;
1206;SDS011;593;53.184;8.216;2022-12-29T11:29:55;3.03;;;0.80;;
1206;SDS011;593;53.184;8.216;2022-12-29T11:32:23;5.43;;;1.02;;
1206;SDS011;593;53.184;8.216;2022-12-29T11:34:50;3.20;;;0.68;;
1206;SDS011;593;53.184;8.216;2022-12-29T11:37:18;3.58;;;0.95;;
1206;SDS011;593;53.184;8.216;2022-12-29T11:39:51;2.28;;;0.80;;
1206;SDS011;593;53.184;8.216;2022-12-29T11:44:56;4.05;;;0.60;;
1206;SDS011;593;53.184;8.216;2022-12-29T11:47:23;2.40;;;0.80;;
1206;SDS011;593;53.184;8.216;2022-12-29T11:49:51;2.58;;;0.98;;
1206;SDS011;593;53.184;8.216;2022-12-29T11:52:24;1.50;;;0.75;;
1206;SDS011;593;53.184;8.216;2022-12-29T11:54:52;1.58;;;0.50;;
1206;SDS011;593;53.184;8.216;2022-12-29T11:57:19;1.83;;;1.07;;
1206;SDS011;593;53.184;8.216;2022-12-29T11:59:51;1.70;;;0.90;;
1206;SDS011;593;53.184;8.216;2022-12-29T12:04:45;2.23;;;0.73;;
1206;SDS011;593;53.184;8.216;2022-12-29T12:07:31;2.10;;;1.20;;
1206;SDS011;593;53.184;8.216;2022-12-29T12:10:04;2.30;;;1.00;;
1206;SDS011;593;53.184;8.216;2022-12-29T12:12:33;0.88;;;0.60;;
1206;SDS011;593;53.184;8.216;2022-12-29T12:15:04;0.82;;;0.70;;
1206;SDS011;593;53.184;8.216;2022-12-29T12:17:39;1.27;;;0.65;;
1206;SDS011;593;53.184;8.216;2022-12-29T12:25:57;2.95;;;1.10;;
1206;SDS011;593;53.184;8.216;2022-12-29T12:31:13;2.88;;;0.73;;
1206;SDS011;593;53.184;8.216;2022-12-29T12:33:44;1.70;;;0.60;;
1206;SDS011;593;53.184;8.216;2022-12-29T12:39:11;2.17;;;0.75;;
1206;SDS011;593;53.184;8.216;2022-12-29T13:03:27;2.08;;;0.60;;
1206;SDS011;593;53.184;8.216;2022-12-29T13:06:15;6.70;;;1.27;;
1206;SDS011;593;53.184;8.216;2022-12-29T13:11:38;2.57;;;0.70;;
1206;SDS011;593;53.184;8.216;2022-12-29T13:14:14;1.70;;;0.73;;
1206;SDS011;593;53.184;8.216;2022-12-29T13:17:06;2.70;;;0.93;;
1206;SDS011;593;53.184;8.216;2022-12-29T13:19:49;4.20;;;0.80;;
1206;SDS011;593;53.184;8.216;2022-12-29T13:22:30;2.50;;;0.70;;
1206;SDS011;593;53.184;8.216;2022-12-29T13:25:21;3.67;;;1.00;;
1206;SDS011;593;53.184;8.216;2022-12-29T13:28:05;3.93;;;0.80;;
1206;SDS011;593;53.184;8.216;2022-12-29T13:36:11;8.75;;;1.30;;
1206;SDS011;593;53.184;8.216;2022-12-29T13:38:45;1.37;;;1.00;;
1206;SDS011;593;53.184;8.216;2022-12-29T13:41:19;6.53;;;0.75;;
1206;SDS011;593;53.184;8.216;2022-12-29T13:43:51;10.25;;;1.00;;
1206;SDS011;593;53.184;8.216;2022-12-29T13:46:22;7.00;;;1.33;;
1206;SDS011;593;53.184;8.216;2022-12-29T13:48:53;2.35;;;0.98;;
1206;SDS011;593;53.184;8.216;2022-12-29T13:51:24;2.58;;;0.85;;
1206;SDS011;593;53.184;8.216;2022-12-29T13:56:51;2.75;;;0.80;;
1206;SDS011;593;53.184;8.216;2022-12-29T13:59:42;2.90;;;1.05;;
1206;SDS011;593;53.184;8.216;2022-12-29T14:07:44;1.33;;;0.93;;
1206;SDS011;593;53.184;8.216;2022-12-29T14:13:27;3.80;;;1.00;;
1206;SDS011;593;53.184;8.216;2022-12-29T14:15:52;5.38;;;1.40;;
1206;SDS011;593;53.184;8.216;2022-12-29T14:18:25;4.23;;;1.30;;
1206;SDS011;593;53.184;8.216;2022-12-29T14:21:00;1.95;;;0.80;;
1206;SDS011;593;53.184;8.216;2022-12-29T14:23:53;3.67;;;0.80;;
1206;SDS011;593;53.184;8.216;2022-12-29T14:28:53;3.80;;;0.90;;
1206;SDS011;593;53.184;8.216;2022-12-29T14:42:03;2.33;;;0.90;;
1206;SDS011;593;53.184;8.216;2022-12-29T14:44:31;3.72;;;0.98;;
1206;SDS011;593;53.184;8.216;2022-12-29T14:46:58;1.37;;;0.90;;
1206;SDS011;593;53.184;8.216;2022-12-29T14:49:30;3.27;;;0.90;;
1206;SDS011;593;53.184;8.216;2022-12-29T14:52:05;1.17;;;0.70;;
1206;SDS011;593;53.184;8.216;2022-12-29T14:57:02;5.43;;;1.47;;
1206;SDS011;593;53.184;8.216;2022-12-29T14:59:30;2.88;;;1.02;;
1206;SDS011;593;53.184;8.216;2022-12-29T15:01:58;7.22;;;0.90;;
1206;SDS011;593;53.184;8.216;2022-12-29T15:04:32;2.17;;;0.90;;
1206;SDS011;593;53.184;8.216;2022-12-29T15:07:00;9.07;;;1.10;;
1206;SDS011;593;53.184;8.216;2022-12-29T15:09:42;4.40;;;1.15;;
1206;SDS011;593;53.184;8.216;2022-12-29T15:12:19;2.43;;;0.80;;
1206;SDS011;593;53.184;8.216;2022-12-29T15:14:56;4.78;;;0.80;;
1206;SDS011;593;53.184;8.216;2022-12-29T15:17:24;3.35;;;1.30;;
1206;SDS011;593;53.184;8.216;2022-12-29T15:19:55;2.65;;;1.05;;
1206;SDS011;593;53.184;8.216;2022-12-29T15:22:22;5.53;;;1.05;;
1206;SDS011;593;53.184;8.216;2022-12-29T15:24:49;3.38;;;1.00;;
1206;SDS011;593;53.184;8.216;2022-12-29T15:27:19;3.60;;;1.30;;
1206;SDS011;593;53.184;8.216;2022-12-29T15:29:46;3.17;;;1.70;;
1206;SDS011;593;53.184;8.216;2022-12-29T15:34:40;3.53;;;1.00;;
1206;SDS011;593;53.184;8.216;2022-12-29T15:37:06;3.80;;;1.87;;
1206;SDS011;593;53.184;8.216;2022-12-29T15:39:32;1.30;;;0.90;;
1206;SDS011;593;53.184;8.216;2022-12-29T15:44:53;3.00;;;0.93;;
1206;SDS011;593;53.184;8.216;2022-12-29T15:47:20;2.22;;;1.20;;
1206;SDS011;593;53.184;8.216;2022-12-29T15:49:48;2.45;;;1.00;;
1206;SDS011;593;53.184;8.216;2022-12-29T15:52:19;2.45;;;1.02;;
1206;SDS011;593;53.184;8.216;2022-12-29T15:54:46;3.88;;;1.25;;
1206;SDS011;593;53.184;8.216;2022-12-29T15:57:21;4.65;;;1.63;;
1206;SDS011;593;53.184;8.216;2022-12-29T15:59:48;1.70;;;1.00;;
1206;SDS011;593;53.184;8.216;2022-12-29T16:02:14;3.47;;;1.10;;
1206;SDS011;593;53.184;8.216;2022-12-29T16:04:40;2.17;;;1.00;;
1206;SDS011;593;53.184;8.216;2022-12-29T16:07:20;5.38;;;1.15;;
1206;SDS011;593;53.184;8.216;2022-12-29T16:09:53;2.60;;;1.03;;
1206;SDS011;593;53.184;8.216;2022-12-29T16:12:29;8.32;;;1.30;;
1206;SDS011;593;53.184;8.216;2022-12-29T16:15:03;5.20;;;1.95;;
1206;SDS011;593;53.184;8.216;2022-12-29T16:17:31;2.88;;;1.63;;
1206;SDS011;593;53.184;8.216;2022-12-29T16:19:59;5.30;;;1.40;;
1206;SDS011;593;53.184;8.216;2022-12-29T16:22:28;1.25;;;1.08;;
1206;SDS011;593;53.184;8.216;2022-12-29T16:25:00;5.15;;;2.58;;
1206;SDS011;593;53.184;8.216;2022-12-29T16:30:02;3.35;;;1.35;;
1206;SDS011;593;53.184;8.216;2022-12-29T16:32:44;4.90;;;2.00;;
1206;SDS011;593;53.184;8.216;2022-12-29T16:35:21;3.47;;;1.17;;
1206;SDS011;593;53.184;8.216;2022-12-29T16:37:49;3.97;;;1.77;;
1206;SDS011;593;53.184;8.216;2022-12-29T16:40:38;4.35;;;1.67;;
1206;SDS011;593;53.184;8.216;2022-12-29T16:43:24;3.40;;;1.30;;
1206;SDS011;593;53.184;8.216;2022-12-29T16:48:22;3.73;;;1.70;;
1206;SDS011;593;53.184;8.216;2022-12-29T16:50:51;2.10;;;1.50;;
1206;SDS011;593;53.184;8.216;2022-12-29T16:53:35;3.08;;;2.13;;
1206;SDS011;593;53.184;8.216;2022-12-29T16:56:16;4.82;;;1.73;;
1206;SDS011;593;53.184;8.216;2022-12-29T16:58:50;4.97;;;2.00;;
1206;SDS011;593;53.184;8.216;2022-12-29T17:01:26;3.67;;;1.38;;
1206;SDS011;593;53.184;8.216;2022-12-29T17:03:57;3.08;;;1.55;;
1206;SDS011;593;53.184;8.216;2022-12-29T17:06:25;5.18;;;2.53;;
1206;SDS011;593;53.184;8.216;2022-12-29T17:08:51;3.20;;;1.67;;
1206;SDS011;593;53.184;8.216;2022-12-29T17:11:27;3.33;;;1.90;;
1206;SDS011;593;53.184;8.216;2022-12-29T17:17:11;4.15;;;2.00;;
1206;SDS011;593;53.184;8.216;2022-12-29T17:19:41;6.45;;;2.00;;
1206;SDS011;593;53.184;8.216;2022-12-29T17:22:15;1.63;;;1.25;;
1206;SDS011;593;53.184;8.216;2022-12-29T17:24:43;2.05;;;1.83;;
1206;SDS011;593;53.184;8.216;2022-12-29T17:27:09;5.83;;;2.20;;
1206;SDS011;593;53.184;8.216;2022-12-29T17:29:45;8.13;;;2.05;;
1206;SDS011;593;53.184;8.216;2022-12-29T17:32:12;2.45;;;1.83;;
1206;SDS011;593;53.184;8.216;2022-12-29T17:34:39;1.60;;;1.30;;
1206;SDS011;593;53.184;8.216;2022-12-29T17:37:48;4.90;;;2.20;;
1206;SDS011;593;53.184;8.216;2022-12-29T17:40:02;3.33;;;1.88;;
1206;SDS011;593;53.184;8.216;2022-12-29T17:42:28;3.65;;;2.60;;
1206;SDS011;593;53.184;8.216;2022-12-29T17:44:56;7.07;;;2.00;;
1206;SDS011;593;53.184;8.216;2022-12-29T17:47:22;3.50;;;2.37;;
1206;SDS011;593;53.184;8.216;2022-12-29T17:49:47;4.10;;;1.90;;
1206;SDS011;593;53.184;8.216;2022-12-29T17:52:13;4.43;;;2.33;;
1206;SDS011;593;53.184;8.216;2022-12-29T17:54:44;4.25;;;2.65;;
1206;SDS011;593;53.184;8.216;2022-12-29T17:57:12;8.43;;;2.28;;
1206;SDS011;593;53.184;8.216;2022-12-29T17:59:39;4.63;;;1.67;;
1206;SDS011;593;53.184;8.216;2022-12-29T18:02:10;2.13;;;1.93;;
1206;SDS011;593;53.184;8.216;2022-12-29T18:04:47;4.53;;;2.17;;
1206;SDS011;593;53.184;8.216;2022-12-29T18:07:12;3.53;;;2.23;;
1206;SDS011;593;53.184;8.216;2022-12-29T18:09:37;3.73;;;1.83;;
1206;SDS011;593;53.184;8.216;2022-12-29T18:12:04;4.37;;;1.73;;
1206;SDS011;593;53.184;8.216;2022-12-29T18:14:35;5.15;;;2.33;;
1206;SDS011;593;53.184;8.216;2022-12-29T18:17:00;5.05;;;2.05;;